Time;durP1;ratioP1;P1;durP2;ratioP2;P2;SDS_P1;SDS_P2;PMS_P1;PMS_P2;Temp;Humidity;BMP_temperature;BMP_pressure;BME280_temperature;BME280_humidity;BME280_pressure;Samples;Min_cycle;Max_cycle;Signal;HPM_P1;HPM_P2
2021/12/09 00:00:18;;;;;;;20.63;13.43;;;;;;;1.10;95.38;94193.81;4851223;29;20061;-47
2021/12/09 00:02:45;;;;;;;21.38;12.70;;;;;;;1.13;96.61;94209.19;4842380;29;20082;-48
2021/12/09 00:05:16;;;;;;;20.75;12.88;;;;;;;1.16;95.42;94208.56;4843201;29;20531;-48
2021/12/09 00:07:44;;;;;;;21.98;12.40;;;;;;;1.23;95.35;94221.41;4827547;29;20152;-46
2021/12/09 00:10:13;;;;;;;19.15;12.15;;;;;;;1.27;94.92;94221.56;4833921;29;20054;-50
2021/12/09 00:12:40;;;;;;;21.52;11.65;;;;;;;1.19;94.83;94228.47;4833377;29;20102;-46
2021/12/09 00:15:08;;;;;;;18.00;11.68;;;;;;;0.87;96.65;94224.38;4832096;29;20073;-49
2021/12/09 00:17:35;;;;;;;19.67;12.02;;;;;;;0.76;97.36;94221.25;4830893;29;20070;-45
2021/12/09 00:20:04;;;;;;;18.58;11.13;;;;;;;0.25;100.00;94228.03;4829189;29;20065;-45
2021/12/09 00:22:31;;;;;;;16.58;10.40;;;;;;;0.57;100.00;94213.53;4837630;29;20038;-50
2021/12/09 00:24:58;;;;;;;19.65;11.27;;;;;;;0.15;100.00;94212.34;4826822;29;20073;-46
2021/12/09 00:27:25;;;;;;;17.42;10.70;;;;;;;0.19;100.00;94215.94;4840503;29;20402;-48
2021/12/09 00:29:52;;;;;;;14.88;9.80;;;;;;;0.27;100.00;94203.78;4839688;29;20050;-45
2021/12/09 00:32:20;;;;;;;16.80;9.85;;;;;;;0.36;100.00;94208.03;4837894;29;20365;-50
2021/12/09 00:34:49;;;;;;;16.85;10.23;;;;;;;0.42;100.00;94211.31;4826789;29;20068;-46
2021/12/09 00:37:23;;;;;;;17.50;9.93;;;;;;;0.54;100.00;94216.03;4832148;29;20107;-46
2021/12/09 00:39:51;;;;;;;16.45;9.90;;;;;;;0.41;100.00;94199.13;4823811;29;20955;-47
2021/12/09 00:42:24;;;;;;;17.10;10.13;;;;;;;0.16;100.00;94225.34;4828285;29;20139;-46
2021/12/09 00:44:52;;;;;;;15.98;9.60;;;;;;;0.17;100.00;94234.88;4825792;29;20087;-48
2021/12/09 00:47:20;;;;;;;17.63;10.25;;;;;;;0.20;100.00;94241.47;4833251;29;20099;-45
2021/12/09 00:49:49;;;;;;;17.27;10.43;;;;;;;0.20;100.00;94236.16;4837398;29;20107;-46
2021/12/09 00:52:16;;;;;;;16.13;10.18;;;;;;;0.47;100.00;94237.78;4833662;29;20077;-45
2021/12/09 00:54:44;;;;;;;15.30;9.55;;;;;;;0.12;100.00;94236.91;4830305;29;20109;-46
2021/12/09 00:57:12;;;;;;;16.95;8.70;;;;;;;0.14;100.00;94235.50;4830336;29;20129;-47
2021/12/09 00:59:39;;;;;;;14.68;9.02;;;;;;;0.20;100.00;94231.63;4824958;29;20081;-46
2021/12/09 01:02:06;;;;;;;15.63;9.10;;;;;;;0.41;100.00;94229.16;4839294;29;20077;-48
2021/12/09 01:04:33;;;;;;;16.05;9.43;;;;;;;0.28;100.00;94238.03;4832281;29;20488;-48
2021/12/09 01:07:00;;;;;;;14.35;9.32;;;;;;;0.31;100.00;94237.44;4838977;29;20058;-46
2021/12/09 01:09:27;;;;;;;13.35;8.57;;;;;;;0.30;100.00;94229.78;4836430;29;21518;-47
2021/12/09 01:11:54;;;;;;;14.75;9.20;;;;;;;0.57;100.00;94234.06;4836014;29;20049;-52
2021/12/09 01:14:21;;;;;;;15.18;9.63;;;;;;;0.40;100.00;94254.22;4837342;29;20140;-49
2021/12/09 01:16:48;;;;;;;16.05;9.35;;;;;;;0.28;100.00;94261.22;4826155;29;20056;-48
2021/12/09 01:19:16;;;;;;;13.05;8.25;;;;;;;0.43;100.00;94264.22;4824851;29;20074;-47
2021/12/09 01:21:44;;;;;;;12.70;8.88;;;;;;;0.10;100.00;94260.34;4826540;29;20038;-48
2021/12/09 01:24:11;;;;;;;13.48;7.70;;;;;;;0.49;100.00;94256.91;4827271;29;20058;-49
2021/12/09 01:26:38;;;;;;;12.10;7.63;;;;;;;-0.09;100.00;94237.44;4825685;29;20440;-49
2021/12/09 01:29:13;;;;;;;12.48;7.90;;;;;;;-0.06;100.00;94220.88;4826010;29;20166;-47
2021/12/09 01:31:43;;;;;;;12.75;7.57;;;;;;;-0.14;100.00;94220.84;4824659;29;20533;-49
2021/12/09 01:34:10;;;;;;;11.52;7.35;;;;;;;-0.35;100.00;94221.38;4829738;29;20137;-48
2021/12/09 01:36:37;;;;;;;13.00;8.35;;;;;;;-0.03;100.00;94224.81;4837800;29;20049;-49
2021/12/09 01:39:07;;;;;;;12.13;8.00;;;;;;;-0.37;100.00;94234.16;4842575;29;20492;-48
2021/12/09 01:41:36;;;;;;;11.82;7.97;;;;;;;-0.16;100.00;94239.75;4818867;29;20091;-48
2021/12/09 01:44:05;;;;;;;11.25;7.22;;;;;;;-0.33;100.00;94244.97;4830289;29;20462;-48
2021/12/09 01:46:33;;;;;;;12.05;8.15;;;;;;;-0.28;100.00;94248.28;4820680;29;20105;-46
2021/12/09 01:49:01;;;;;;;13.55;8.50;;;;;;;0.01;100.00;94255.00;4823557;29;20050;-52
2021/12/09 01:51:29;;;;;;;13.45;8.65;;;;;;;0.18;100.00;94259.59;4825937;29;20042;-48
2021/12/09 01:53:56;;;;;;;11.68;8.10;;;;;;;0.31;100.00;94266.69;4830492;29;20568;-50
2021/12/09 01:56:26;;;;;;;11.90;7.95;;;;;;;0.74;100.00;94274.00;4829978;29;20590;-49
2021/12/09 01:59:00;;;;;;;11.25;7.95;;;;;;;0.33;100.00;94277.03;4829095;29;20072;-48
2021/12/09 02:01:27;;;;;;;10.70;7.18;;;;;;;0.63;99.94;94272.75;4838312;29;20082;-48
2021/12/09 02:03:56;;;;;;;10.93;7.13;;;;;;;0.45;100.00;94279.88;4835947;29;20465;-48
2021/12/09 02:06:24;;;;;;;11.68;8.02;;;;;;;0.49;100.00;94275.53;4838873;29;20054;-49
2021/12/09 02:08:52;;;;;;;13.07;9.23;;;;;;;0.48;99.50;94276.59;4835696;29;20552;-52
2021/12/09 02:11:20;;;;;;;12.20;7.63;;;;;;;0.26;100.00;94282.81;4827351;29;20091;-48
2021/12/09 02:13:50;;;;;;;13.15;8.48;;;;;;;0.32;100.00;94286.09;4835064;29;20052;-50
2021/12/09 02:16:18;;;;;;;11.00;7.55;;;;;;;0.69;99.33;94290.13;4837992;29;20050;-52
2021/12/09 02:18:45;;;;;;;12.80;8.20;;;;;;;0.63;99.05;94291.38;4829666;29;20114;-51
2021/12/09 02:21:14;;;;;;;13.20;9.02;;;;;;;0.53;99.13;94287.13;4841794;29;20058;-49
2021/12/09 02:23:53;;;;;;;12.45;8.20;;;;;;;0.43;100.00;94282.84;4835998;29;20058;-49
2021/12/09 02:26:28;;;;;;;13.85;8.70;;;;;;;0.39;100.00;94281.91;4829502;29;20146;-51
2021/12/09 02:28:56;;;;;;;13.15;8.55;;;;;;;0.61;98.80;94289.00;4835733;29;20491;-49
2021/12/09 02:31:24;;;;;;;11.20;7.57;;;;;;;0.57;98.93;94282.75;4838265;29;20066;-48
2021/12/09 02:33:52;;;;;;;14.05;8.95;;;;;;;0.64;98.79;94291.03;4833521;29;20065;-49
2021/12/09 02:36:19;;;;;;;11.80;7.72;;;;;;;0.60;98.94;94292.78;4828139;29;20137;-50
2021/12/09 02:38:48;;;;;;;12.55;8.27;;;;;;;0.13;100.00;94295.09;4815286;29;20435;-48
2021/12/09 02:41:18;;;;;;;11.57;7.80;;;;;;;0.25;100.00;94283.88;4836937;29;20138;-49
2021/12/09 02:43:49;;;;;;;10.57;7.38;;;;;;;0.48;100.00;94284.59;4837973;29;20050;-49
2021/12/09 02:46:17;;;;;;;11.40;7.60;;;;;;;0.56;99.22;94269.75;4828209;29;20138;-48
2021/12/09 02:48:45;;;;;;;11.07;7.65;;;;;;;0.37;100.00;94267.34;4839964;29;20046;-50
2021/12/09 02:51:13;;;;;;;12.27;7.78;;;;;;;0.46;99.85;94263.63;4830735;29;20052;-48
2021/12/09 02:53:40;;;;;;;12.07;8.07;;;;;;;0.37;100.00;94265.47;4828640;29;20477;-47
2021/12/09 02:56:08;;;;;;;12.48;7.82;;;;;;;0.68;99.72;94262.75;4827088;29;20046;-49
2021/12/09 02:58:36;;;;;;;13.45;8.70;;;;;;;0.91;97.84;94281.22;4829639;29;20141;-53
2021/12/09 03:01:18;;;;;;;12.48;7.75;;;;;;;0.42;99.20;94283.97;4829305;29;20057;-53
2021/12/09 03:03:52;;;;;;;11.63;7.53;;;;;;;0.45;100.00;94293.19;4825239;29;20185;-52
2021/12/09 03:06:23;;;;;;;13.27;8.38;;;;;;;0.73;98.80;94295.63;4835907;29;20155;-53
2021/12/09 03:08:50;;;;;;;13.70;8.30;;;;;;;0.88;97.65;94297.84;4834261;29;20069;-51
2021/12/09 03:11:20;;;;;;;13.68;8.77;;;;;;;0.63;97.93;94296.69;4832030;29;20046;-51
2021/12/09 03:13:49;;;;;;;13.27;7.97;;;;;;;0.63;98.33;94302.78;4828902;29;20047;-49
2021/12/09 03:16:19;;;;;;;12.57;8.13;;;;;;;0.51;99.29;94320.44;4824044;29;20137;-50
2021/12/09 03:18:49;;;;;;;12.65;8.23;;;;;;;0.17;100.00;94316.56;4823553;29;20078;-53
2021/12/09 03:21:20;;;;;;;13.32;8.38;;;;;;;0.26;100.00;94313.91;4830221;29;20054;-49
2021/12/09 03:23:47;;;;;;;12.27;8.50;;;;;;;0.17;100.00;94314.69;4832833;29;20109;-50
2021/12/09 03:26:18;;;;;;;14.98;9.13;;;;;;;0.64;100.00;94309.69;4826099;29;20103;-53
2021/12/09 03:28:45;;;;;;;12.82;8.18;;;;;;;0.32;100.00;94318.00;4827135;29;20057;-48
2021/12/09 03:31:12;;;;;;;12.85;8.65;;;;;;;0.14;100.00;94322.47;4814564;29;20133;-51
2021/12/09 03:33:39;;;;;;;12.68;8.80;;;;;;;0.64;99.42;94322.97;4824254;29;20046;-53
2021/12/09 03:36:07;;;;;;;14.40;9.18;;;;;;;0.62;99.16;94337.72;4839417;29;20148;-50
2021/12/09 03:38:35;;;;;;;13.60;8.35;;;;;;;0.63;98.85;94324.09;4823789;29;20055;-48
2021/12/09 03:41:03;;;;;;;12.85;8.38;;;;;;;0.64;98.55;94330.97;4833433;29;20061;-52
2021/12/09 03:43:30;;;;;;;14.73;8.77;;;;;;;0.32;99.67;94326.00;4836121;29;20071;-49
2021/12/09 03:45:57;;;;;;;13.68;9.15;;;;;;;0.55;99.18;94332.81;4833544;29;20514;-50
2021/12/09 03:48:28;;;;;;;15.70;9.23;;;;;;;0.51;99.40;94325.75;4836901;29;20054;-49
2021/12/09 03:50:55;;;;;;;14.27;8.80;;;;;;;0.66;98.51;94331.47;4842452;29;20504;-50
2021/12/09 03:53:23;;;;;;;13.90;9.25;;;;;;;0.61;98.87;94328.94;4843717;29;20338;-50
2021/12/09 03:55:51;;;;;;;15.48;9.90;;;;;;;0.77;97.87;94321.31;4836306;29;20580;-50
2021/12/09 03:58:18;;;;;;;15.73;9.50;;;;;;;0.73;98.56;94328.34;4834815;29;20050;-50
2021/12/09 04:00:47;;;;;;;15.55;9.68;;;;;;;0.57;99.22;94340.50;4827721;29;20052;-50
2021/12/09 04:03:16;;;;;;;17.02;9.50;;;;;;;0.83;97.75;94337.94;4838723;29;20054;-49
2021/12/09 04:05:47;;;;;;;17.55;10.30;;;;;;;0.71;99.52;94349.16;4832085;29;20137;-46
2021/12/09 04:08:16;;;;;;;17.17;10.20;;;;;;;0.67;97.98;94349.00;4843682;29;20049;-48
2021/12/09 04:10:44;;;;;;;15.93;9.40;;;;;;;0.74;98.51;94342.44;4832138;29;20484;-50
2021/12/09 04:13:11;;;;;;;17.70;10.38;;;;;;;0.81;97.47;94343.53;4825649;29;20058;-46
2021/12/09 04:15:39;;;;;;;17.35;9.93;;;;;;;0.09;100.00;94330.56;4833770;29;20562;-50
2021/12/09 04:18:06;;;;;;;15.60;9.13;;;;;;;0.32;100.00;94334.75;4843130;29;20065;-47
2021/12/09 04:20:33;;;;;;;17.25;9.60;;;;;;;0.67;100.00;94345.53;4831114;29;20054;-48
2021/12/09 04:23:00;;;;;;;16.08;9.85;;;;;;;0.85;98.20;94357.06;4836429;29;20072;-48
2021/12/09 04:25:27;;;;;;;15.40;9.55;;;;;;;0.70;98.93;94361.69;4831548;29;20232;-45
2021/12/09 04:27:55;;;;;;;16.13;9.77;;;;;;;0.02;100.00;94357.59;4836800;29;20054;-48
2021/12/09 04:30:24;;;;;;;18.10;10.10;;;;;;;0.28;100.00;94351.66;4828956;29;20424;-46
2021/12/09 04:32:53;;;;;;;17.80;10.50;;;;;;;-0.27;100.00;94345.53;4826756;29;20064;-45
2021/12/09 04:35:21;;;;;;;15.82;9.90;;;;;;;-0.41;100.00;94339.50;4831755;29;20127;-49
2021/12/09 04:37:48;;;;;;;14.57;9.45;;;;;;;0.28;100.00;94341.78;4831490;29;20049;-47
2021/12/09 04:40:17;;;;;;;16.80;10.05;;;;;;;0.09;100.00;94339.34;4838048;29;20420;-46
2021/12/09 04:42:44;;;;;;;14.93;9.30;;;;;;;0.02;100.00;94343.53;4833322;29;20038;-46
2021/12/09 04:45:12;;;;;;;16.42;10.05;;;;;;;0.26;100.00;94348.50;4839811;29;20088;-53
2021/12/09 04:47:40;;;;;;;16.02;10.05;;;;;;;0.03;100.00;94359.16;4830852;29;20513;-46
2021/12/09 04:50:09;;;;;;;18.90;10.68;;;;;;;0.44;100.00;94371.44;4831689;29;20106;-50
2021/12/09 04:52:36;;;;;;;18.15;10.70;;;;;;;0.83;99.10;94362.66;4826564;29;20042;-48
2021/12/09 04:55:06;;;;;;;17.63;10.95;;;;;;;0.15;100.00;94359.41;4836440;29;20106;-54
2021/12/09 04:57:34;;;;;;;19.58;10.73;;;;;;;0.33;100.00;94367.50;4828108;29;20485;-51
2021/12/09 05:00:04;;;;;;;18.55;11.35;;;;;;;0.47;100.00;94370.84;4826836;29;20046;-47
2021/12/09 05:02:47;;;;;;;18.45;10.55;;;;;;;0.63;100.00;94372.00;4841704;29;20520;-47
2021/12/09 05:05:14;;;;;;;17.42;10.32;;;;;;;0.68;98.94;94374.53;4839861;29;20049;-48
2021/12/09 05:07:42;;;;;;;17.80;10.55;;;;;;;0.47;100.00;94373.50;4842895;29;20060;-47
2021/12/09 05:10:09;;;;;;;16.48;9.82;;;;;;;0.80;99.59;94375.81;4835857;29;20566;-46
2021/12/09 05:12:36;;;;;;;18.92;10.23;;;;;;;0.18;100.00;94382.72;4839550;29;20077;-47
2021/12/09 05:15:08;;;;;;;17.30;10.02;;;;;;;0.51;100.00;94394.94;4830402;29;20114;-46
2021/12/09 05:17:36;;;;;;;18.23;10.40;;;;;;;0.79;98.35;94384.91;4832767;29;20038;-48
2021/12/09 05:20:05;;;;;;;17.83;11.13;;;;;;;0.98;97.32;94390.75;4841282;29;20129;-48
2021/12/09 05:22:32;;;;;;;19.27;11.68;;;;;;;0.81;97.53;94396.00;4835938;29;20066;-46
2021/12/09 05:24:59;;;;;;;18.52;10.45;;;;;;;0.81;97.71;94404.00;4826887;29;20047;-48
2021/12/09 05:27:26;;;;;;;18.45;10.55;;;;;;;0.64;98.18;94402.84;4841165;29;20048;-47
2021/12/09 05:30:04;;;;;;;20.23;10.68;;;;;;;0.49;100.00;94413.09;4839314;29;20559;-46
2021/12/09 05:32:31;;;;;;;18.63;10.82;;;;;;;0.93;98.40;94417.53;4838467;29;20058;-50
2021/12/09 05:34:58;;;;;;;17.15;10.02;;;;;;;1.07;96.67;94418.22;4825021;29;20557;-46
2021/12/09 05:37:26;;;;;;;20.20;11.10;;;;;;;0.96;96.34;94429.44;4825950;29;20369;-47
2021/12/09 05:39:56;;;;;;;20.05;10.77;;;;;;;0.70;98.01;94444.19;4830159;29;20050;-46
2021/12/09 05:42:29;;;;;;;18.67;10.60;;;;;;;0.86;98.63;94451.81;4838149;29;20113;-47
2021/12/09 05:44:57;;;;;;;17.27;10.40;;;;;;;0.79;97.67;94459.44;4836867;29;20061;-48
2021/12/09 05:47:24;;;;;;;19.92;10.93;;;;;;;0.35;99.71;94458.41;4840348;29;20046;-46
2021/12/09 05:49:53;;;;;;;18.95;11.07;;;;;;;0.67;100.00;94462.66;4837101;29;20053;-49
2021/12/09 05:52:20;;;;;;;17.52;10.52;;;;;;;0.73;98.96;94460.66;4831753;29;20042;-48
2021/12/09 05:54:47;;;;;;;18.25;9.95;;;;;;;0.70;99.24;94470.81;4826652;29;20081;-49
2021/12/09 05:57:14;;;;;;;15.85;9.30;;;;;;;0.13;100.00;94477.81;4860887;24;20057;-43
2021/12/09 05:59:42;;;;;;;15.73;9.75;;;;;;;0.73;100.00;94466.00;4858311;29;20049;-48
2021/12/09 06:02:11;;;;;;;17.70;9.80;;;;;;;0.27;100.00;94467.13;4848122;29;20046;-44
2021/12/09 06:04:39;;;;;;;16.60;9.45;;;;;;;0.64;99.96;94473.91;4841569;29;20065;-47
2021/12/09 06:07:07;;;;;;;15.10;8.57;;;;;;;0.61;99.65;94479.84;4840026;29;20094;-48
2021/12/09 06:09:34;;;;;;;16.10;8.98;;;;;;;0.79;100.00;94483.41;4841836;29;20046;-45
2021/12/09 06:12:01;;;;;;;16.58;9.57;;;;;;;0.07;100.00;94482.47;4843852;29;20121;-45
2021/12/09 06:14:28;;;;;;;14.43;8.68;;;;;;;0.42;100.00;94478.19;4856452;29;21902;-46
2021/12/09 06:16:55;;;;;;;14.57;8.50;;;;;;;-0.05;100.00;94466.25;4842184;29;20061;-50
2021/12/09 06:19:22;;;;;;;16.30;8.43;;;;;;;0.38;100.00;94471.09;4843438;29;20059;-50
2021/12/09 06:21:50;;;;;;;16.38;8.57;;;;;;;0.81;100.00;94478.53;4855583;29;20058;-51
2021/12/09 06:24:21;;;;;;;15.23;7.85;;;;;;;0.98;99.19;94480.53;4849267;29;20414;-50
2021/12/09 06:26:48;;;;;;;13.10;7.38;;;;;;;1.02;97.92;94482.25;4844315;29;20050;-43
2021/12/09 06:29:16;;;;;;;13.57;8.02;;;;;;;0.22;100.00;94479.44;4847916;29;20129;-46
2021/12/09 06:31:43;;;;;;;14.23;8.40;;;;;;;0.44;100.00;94483.97;4843651;29;20050;-47
2021/12/09 06:34:12;;;;;;;11.73;7.35;;;;;;;0.63;99.81;94483.78;4839606;29;20086;-46
2021/12/09 06:36:42;;;;;;;14.75;8.02;;;;;;;0.91;98.04;94480.94;4850328;29;20528;-45
2021/12/09 06:39:09;;;;;;;13.05;7.40;;;;;;;1.07;96.57;94490.13;4855098;29;20507;-45
2021/12/09 06:41:36;;;;;;;14.60;8.05;;;;;;;0.92;97.21;94480.66;4852530;29;20045;-43
2021/12/09 06:44:04;;;;;;;13.30;7.80;;;;;;;0.68;98.45;94478.34;4848029;29;20397;-46
2021/12/09 06:46:31;;;;;;;15.50;8.40;;;;;;;0.63;99.00;94475.81;4850087;29;20066;-44
2021/12/09 06:48:58;;;;;;;14.32;8.05;;;;;;;0.80;98.82;94472.44;4842177;29;20046;-46
2021/12/09 06:51:25;;;;;;;13.38;6.93;;;;;;;0.66;98.56;94472.53;4854162;29;20069;-45
2021/12/09 06:53:52;;;;;;;14.63;7.88;;;;;;;0.06;100.00;94480.88;4859943;29;20154;-45
2021/12/09 06:56:19;;;;;;;14.18;8.23;;;;;;;0.53;100.00;94478.72;4858930;29;20927;-46
2021/12/09 06:58:46;;;;;;;11.48;6.95;;;;;;;0.53;100.00;94462.75;4870412;29;20132;-43
2021/12/09 07:01:14;;;;;;;11.82;7.15;;;;;;;0.78;99.18;94476.50;4860481;29;20044;-46
2021/12/09 07:03:42;;;;;;;13.10;7.63;;;;;;;0.59;99.21;94482.81;4857082;29;20045;-44
2021/12/09 07:06:11;;;;;;;12.70;7.57;;;;;;;0.59;99.43;94477.50;4841899;29;20377;-46
2021/12/09 07:08:52;;;;;;;12.63;7.22;;;;;;;0.52;100.00;94481.66;4853172;29;20090;-43
2021/12/09 07:11:20;;;;;;;12.98;7.05;;;;;;;0.52;99.77;94495.78;4845335;29;20049;-44
2021/12/09 07:13:48;;;;;;;12.55;6.88;;;;;;;0.35;100.00;94495.66;4843753;29;20183;-43
2021/12/09 07:16:16;;;;;;;12.90;7.28;;;;;;;0.36;100.00;94497.25;4845751;29;20050;-43
2021/12/09 07:18:43;;;;;;;11.95;6.95;;;;;;;0.50;100.00;94489.97;4852792;29;20389;-46
2021/12/09 07:21:10;;;;;;;11.27;6.05;;;;;;;0.45;100.00;94500.72;4842099;29;20133;-44
2021/12/09 07:23:38;;;;;;;14.93;6.63;;;;;;;0.52;100.00;94492.31;4839601;29;20083;-45
2021/12/09 07:26:05;;;;;;;10.40;6.53;;;;;;;0.40;100.00;94488.34;4842411;29;20080;-47
2021/12/09 07:28:32;;;;;;;10.55;6.50;;;;;;;0.48;100.00;94510.75;4845695;29;20506;-47
2021/12/09 07:31:00;;;;;;;10.63;6.32;;;;;;;0.73;100.00;94513.91;4844597;29;20062;-48
2021/12/09 07:33:27;;;;;;;11.00;6.50;;;;;;;0.69;100.00;94514.50;4852910;29;20076;-44
2021/12/09 07:35:54;;;;;;;12.73;7.00;;;;;;;0.74;98.85;94507.47;4861237;29;20052;-47
2021/12/09 07:38:21;;;;;;;13.13;6.82;;;;;;;0.58;99.67;94513.19;4857600;29;20447;-44
2021/12/09 07:40:50;;;;;;;12.40;6.25;;;;;;;0.52;100.00;94519.72;4844469;29;20094;-45
2021/12/09 07:43:17;;;;;;;11.35;6.63;;;;;;;0.45;100.00;94508.69;4852778;29;20048;-48
2021/12/09 07:45:44;;;;;;;12.00;7.00;;;;;;;0.49;100.00;94509.69;4842497;29;20081;-45
2021/12/09 07:48:11;;;;;;;13.70;6.95;;;;;;;0.45;100.00;94508.69;4848042;29;20072;-44
2021/12/09 07:50:39;;;;;;;12.75;7.47;;;;;;;0.45;100.00;94506.03;4862770;29;20056;-43
2021/12/09 07:53:06;;;;;;;12.60;7.70;;;;;;;0.35;100.00;94515.06;4858687;29;20072;-43
2021/12/09 07:55:33;;;;;;;15.23;8.07;;;;;;;0.10;100.00;94505.81;4843061;29;20060;-42
2021/12/09 07:58:00;;;;;;;13.25;7.40;;;;;;;0.34;100.00;94523.34;4844361;29;20129;-45
2021/12/09 08:00:31;;;;;;;11.50;6.88;;;;;;;0.42;100.00;94528.75;4844039;29;20054;-45
2021/12/09 08:03:00;;;;;;;11.57;6.70;;;;;;;0.43;100.00;94521.53;4845196;29;20124;-45
2021/12/09 08:05:34;;;;;;;10.45;6.35;;;;;;;0.66;100.00;94528.44;4862055;29;20414;-42
2021/12/09 08:08:02;;;;;;;11.25;6.93;;;;;;;0.52;100.00;94527.72;4861085;29;20515;-46
2021/12/09 08:10:29;;;;;;;12.27;7.57;;;;;;;0.43;100.00;94532.19;4846771;29;20128;-44
2021/12/09 08:12:58;;;;;;;11.50;7.53;;;;;;;0.40;100.00;94543.44;4862140;29;20064;-46
2021/12/09 08:15:28;;;;;;;11.77;7.20;;;;;;;0.66;100.00;94557.72;4841687;29;20423;-44
2021/12/09 08:20:26;;;;;;;10.52;6.55;;;;;;;0.53;100.00;94561.22;4843734;29;20049;-47
2021/12/09 08:22:54;;;;;;;11.07;7.07;;;;;;;0.43;100.00;94574.75;4843657;29;20483;-42
2021/12/09 08:25:22;;;;;;;11.80;6.78;;;;;;;0.37;100.00;94575.97;4856750;29;20145;-42
2021/12/09 08:27:49;;;;;;;11.75;6.88;;;;;;;0.51;100.00;94579.34;4843466;29;20424;-44
2021/12/09 08:30:21;;;;;;;11.43;6.43;;;;;;;0.52;100.00;94599.56;4843210;29;20060;-42
2021/12/09 08:33:09;;;;;;;10.90;6.57;;;;;;;0.67;100.00;94587.78;4850031;29;20129;-44
2021/12/09 08:35:36;;;;;;;11.95;6.38;;;;;;;0.30;100.00;94588.91;4860835;29;20045;-45
2021/12/09 08:38:06;;;;;;;11.18;6.63;;;;;;;0.50;100.00;94596.41;4860931;29;20472;-46
2021/12/09 08:40:34;;;;;;;9.52;6.35;;;;;;;0.43;100.00;94588.84;4849281;29;20050;-45
2021/12/09 08:43:01;;;;;;;13.00;8.40;;;;;;;0.63;100.00;94578.81;4842222;29;20058;-43
2021/12/09 08:45:29;;;;;;;12.82;6.45;;;;;;;0.27;100.00;94581.50;4859630;29;20514;-46
2021/12/09 08:47:55;;;;;;;12.55;6.65;;;;;;;0.40;100.00;94583.34;4843181;29;20050;-44
2021/12/09 08:50:25;;;;;;;10.38;6.78;;;;;;;0.41;100.00;94588.34;4860407;29;20071;-45
2021/12/09 08:52:53;;;;;;;15.80;7.43;;;;;;;0.50;100.00;94595.63;4860602;29;20136;-45
2021/12/09 08:55:21;;;;;;;10.02;6.40;;;;;;;0.44;100.00;94600.28;4843586;29;20092;-46
2021/12/09 08:57:49;;;;;;;13.57;6.60;;;;;;;0.52;100.00;94598.75;4861284;29;20084;-42
2021/12/09 09:00:17;;;;;;;11.45;6.93;;;;;;;0.28;100.00;94607.81;4843901;29;20090;-45
2021/12/09 09:02:47;;;;;;;10.55;6.25;;;;;;;0.34;100.00;94605.81;4848888;29;20069;-44
2021/12/09 09:05:14;;;;;;;11.57;6.85;;;;;;;0.34;100.00;94614.59;4842690;29;20050;-43
2021/12/09 09:07:44;;;;;;;12.05;6.97;;;;;;;0.36;100.00;94616.97;4842709;29;20106;-42
2021/12/09 09:10:14;;;;;;;10.88;6.60;;;;;;;0.33;100.00;94604.25;4858747;29;20065;-43
2021/12/09 09:12:41;;;;;;;14.00;6.85;;;;;;;0.49;100.00;94621.47;4851550;29;20064;-48
2021/12/09 09:15:11;;;;;;;10.55;6.90;;;;;;;0.53;100.00;94622.44;4840957;29;20056;-45
2021/12/09 09:17:38;;;;;;;9.65;6.30;;;;;;;0.52;100.00;94630.69;4843060;29;20060;-44
2021/12/09 09:20:09;;;;;;;11.07;6.30;;;;;;;0.27;100.00;94629.41;4857793;29;20049;-45
2021/12/09 09:22:37;;;;;;;11.52;6.47;;;;;;;0.24;100.00;94641.41;4861050;29;20077;-46
2021/12/09 09:25:10;;;;;;;10.40;6.63;;;;;;;0.38;100.00;94641.38;4846435;29;20056;-44
2021/12/09 09:27:37;;;;;;;11.60;7.25;;;;;;;0.52;100.00;94644.00;4850990;29;20072;-45
2021/12/09 09:30:07;;;;;;;11.93;7.50;;;;;;;0.47;100.00;94639.59;4860976;29;20080;-43
2021/12/09 09:32:34;;;;;;;13.10;7.05;;;;;;;0.45;100.00;94641.75;4852330;29;20042;-45
2021/12/09 09:35:01;;;;;;;13.75;7.72;;;;;;;0.48;100.00;94638.50;4842658;29;20137;-43
2021/12/09 09:37:28;;;;;;;12.95;6.50;;;;;;;0.45;100.00;94636.44;4842227;29;20070;-43
2021/12/09 09:40:06;;;;;;;11.37;7.27;;;;;;;0.53;100.00;94630.41;4836789;29;20507;-44
2021/12/09 09:42:55;;;;;;;11.63;7.25;;;;;;;0.53;100.00;94635.72;4848432;29;20332;-43
2021/12/09 09:45:21;;;;;;;15.05;7.30;;;;;;;0.55;100.00;94636.19;4843949;29;20054;-48
2021/12/09 09:47:49;;;;;;;14.35;8.10;;;;;;;0.52;100.00;94626.19;4841134;29;20133;-43
2021/12/09 09:50:17;;;;;;;14.05;7.65;;;;;;;0.18;100.00;94632.75;4853502;29;20133;-42
2021/12/09 09:52:44;;;;;;;12.43;7.63;;;;;;;0.17;100.00;94623.19;4860339;29;20065;-46
2021/12/09 09:55:14;;;;;;;14.60;8.85;;;;;;;0.40;100.00;94621.38;4855003;29;20136;-43
2021/12/09 09:57:43;;;;;;;15.80;9.02;;;;;;;0.61;100.00;94639.53;4841672;29;20073;-44
2021/12/09 10:00:12;;;;;;;13.48;8.48;;;;;;;0.70;100.00;94637.75;4852066;29;20429;-43
2021/12/09 10:02:39;;;;;;;15.95;9.57;;;;;;;0.75;100.00;94642.97;4857995;29;20136;-44
2021/12/09 10:05:08;;;;;;;17.80;10.18;;;;;;;0.43;100.00;94634.09;4844243;29;20566;-43
2021/12/09 10:07:36;;;;;;;21.33;10.73;;;;;;;0.54;100.00;94642.63;4841845;29;20069;-42
2021/12/09 10:10:07;;;;;;;18.13;11.30;;;;;;;0.73;100.00;94647.00;4841779;29;20123;-44
2021/12/09 10:12:34;;;;;;;17.95;10.85;;;;;;;0.66;100.00;94642.88;4849201;29;20053;-43
2021/12/09 10:15:01;;;;;;;18.50;11.18;;;;;;;0.58;100.00;94637.47;4858637;29;20065;-45
2021/12/09 10:17:28;;;;;;;19.08;11.25;;;;;;;0.58;100.00;94635.59;4856177;29;20054;-42
2021/12/09 10:20:09;;;;;;;21.13;11.20;;;;;;;0.57;100.00;94639.34;4860367;29;20415;-43
2021/12/09 10:22:37;;;;;;;21.88;13.07;;;;;;;0.77;100.00;94638.09;4846971;29;20061;-43
2021/12/09 10:25:20;;;;;;;23.45;12.93;;;;;;;1.03;100.00;94646.28;4840025;29;20122;-43
2021/12/09 10:28:11;;;;;;;19.80;11.70;;;;;;;0.92;100.00;94640.41;4841821;29;20497;-47
2021/12/09 10:30:39;;;;;;;25.08;12.48;;;;;;;1.11;99.91;94644.78;4841556;29;20056;-45
2021/12/09 10:33:06;;;;;;;22.35;12.07;;;;;;;0.78;100.00;94636.22;4857482;29;20041;-43
2021/12/09 10:35:40;;;;;;;20.58;11.77;;;;;;;0.89;100.00;94641.03;4858899;29;20081;-44
2021/12/09 10:38:07;;;;;;;23.95;11.93;;;;;;;0.84;100.00;94649.13;4843389;29;20045;-44
2021/12/09 10:40:37;;;;;;;20.92;11.57;;;;;;;0.86;100.00;94654.94;4841201;29;20053;-45
2021/12/09 10:43:04;;;;;;;22.20;12.45;;;;;;;0.99;100.00;94655.97;4849195;29;20133;-43
2021/12/09 10:45:34;;;;;;;20.92;11.65;;;;;;;1.06;100.00;94650.22;4840576;29;20076;-44
2021/12/09 10:48:21;;;;;;;23.50;11.63;;;;;;;0.94;100.00;94634.78;4856310;29;20504;-47
2021/12/09 10:51:04;;;;;;;22.92;12.43;;;;;;;1.04;100.00;94653.22;4859407;29;20219;-45
2021/12/09 10:53:46;;;;;;;20.15;11.02;;;;;;;0.86;100.00;94652.28;4839952;29;20064;-44
2021/12/09 10:56:28;;;;;;;26.88;12.50;;;;;;;1.04;100.00;94657.72;4840135;29;20070;-43
2021/12/09 10:58:56;;;;;;;21.98;11.93;;;;;;;1.00;100.00;94652.22;4859410;29;20485;-45
2021/12/09 11:01:25;;;;;;;23.65;12.20;;;;;;;1.12;100.00;94646.34;4857649;29;20049;-43
2021/12/09 11:04:00;;;;;;;23.98;12.20;;;;;;;1.07;100.00;94652.59;4853894;29;20404;-42
2021/12/09 11:06:34;;;;;;;20.58;12.15;;;;;;;0.97;100.00;94652.03;4842296;29;20406;-44
2021/12/09 11:09:06;;;;;;;19.55;11.90;;;;;;;1.00;100.00;94648.78;4859618;29;20153;-44
2021/12/09 11:11:42;;;;;;;23.90;11.18;;;;;;;1.05;100.00;94654.78;4857471;29;20105;-46
2021/12/09 11:14:14;;;;;;;21.75;11.05;;;;;;;1.05;99.75;94660.09;4846356;29;20137;-45
2021/12/09 11:16:49;;;;;;;18.65;10.07;;;;;;;0.71;100.00;94655.28;4852945;29;20042;-45
2021/12/09 11:19:24;;;;;;;19.45;10.20;;;;;;;0.72;100.00;94658.75;4858236;29;20048;-44
2021/12/09 11:21:59;;;;;;;20.67;10.70;;;;;;;0.91;100.00;94659.34;4859568;29;20085;-46
2021/12/09 11:24:36;;;;;;;17.23;10.30;;;;;;;0.94;100.00;94648.09;4852164;29;20061;-47
2021/12/09 11:27:08;;;;;;;15.88;9.48;;;;;;;1.12;99.97;94649.03;4840471;29;20162;-45
2021/12/09 11:29:43;;;;;;;18.58;10.07;;;;;;;1.05;99.79;94654.78;4851918;29;20087;-47
2021/12/09 11:34:54;;;;;;;15.35;9.77;;;;;;;0.98;100.00;94664.28;4844447;29;20045;-46
2021/12/09 11:40:11;;;;;;;18.73;9.93;;;;;;;1.16;99.89;94661.41;4844134;29;20057;-45